sensor_id;sensor_type;location;lat;lon;timestamp;P1;durP1;ratioP1;P2;durP2;ratioP2
59169;SDS011;52474;52.236;5.114;2024-02-15T00:00:40;32.85;;;9.07;;
59169;SDS011;52474;52.236;5.114;2024-02-15T00:03:08;25.60;;;8.55;;
59169;SDS011;52474;52.236;5.114;2024-02-15T00:05:39;40.45;;;10.93;;
59169;SDS011;52474;52.236;5.114;2024-02-15T00:08:05;30.25;;;9.63;;
59169;SDS011;52474;52.236;5.114;2024-02-15T00:10:31;32.78;;;10.95;;
59169;SDS011;52474;52.236;5.114;2024-02-15T00:12:58;44.55;;;11.23;;
59169;SDS011;52474;52.236;5.114;2024-02-15T00:15:24;36.15;;;12.35;;
59169;SDS011;52474;52.236;5.114;2024-02-15T00:17:49;39.28;;;13.85;;
59169;SDS011;52474;52.236;5.114;2024-02-15T00:20:17;45.55;;;14.50;;
59169;SDS011;52474;52.236;5.114;2024-02-15T00:22:43;38.97;;;15.23;;
59169;SDS011;52474;52.236;5.114;2024-02-15T00:25:09;35.50;;;14.88;;
59169;SDS011;52474;52.236;5.114;2024-02-15T00:27:38;43.43;;;13.87;;
59169;SDS011;52474;52.236;5.114;2024-02-15T00:30:04;34.17;;;13.48;;
59169;SDS011;52474;52.236;5.114;2024-02-15T00:32:33;36.88;;;12.68;;
59169;SDS011;52474;52.236;5.114;2024-02-15T00:34:59;38.70;;;13.40;;
59169;SDS011;52474;52.236;5.114;2024-02-15T00:37:25;32.60;;;12.30;;
59169;SDS011;52474;52.236;5.114;2024-02-15T00:39:51;31.63;;;11.75;;
59169;SDS011;52474;52.236;5.114;2024-02-15T00:42:16;31.60;;;11.70;;
59169;SDS011;52474;52.236;5.114;2024-02-15T00:44:44;29.63;;;10.73;;
59169;SDS011;52474;52.236;5.114;2024-02-15T00:47:10;32.28;;;11.00;;
59169;SDS011;52474;52.236;5.114;2024-02-15T00:49:37;34.72;;;10.10;;
59169;SDS011;52474;52.236;5.114;2024-02-15T00:52:03;25.88;;;9.73;;
59169;SDS011;52474;52.236;5.114;2024-02-15T00:54:29;27.05;;;9.05;;
59169;SDS011;52474;52.236;5.114;2024-02-15T00:56:57;22.98;;;9.63;;
59169;SDS011;52474;52.236;5.114;2024-02-15T00:59:22;27.15;;;8.90;;
59169;SDS011;52474;52.236;5.114;2024-02-15T01:01:48;23.13;;;9.02;;
59169;SDS011;52474;52.236;5.114;2024-02-15T01:04:16;23.27;;;9.00;;
59169;SDS011;52474;52.236;5.114;2024-02-15T01:06:42;20.05;;;8.48;;
59169;SDS011;52474;52.236;5.114;2024-02-15T01:09:08;27.40;;;9.43;;
59169;SDS011;52474;52.236;5.114;2024-02-15T01:11:34;26.42;;;9.32;;
59169;SDS011;52474;52.236;5.114;2024-02-15T01:14:02;21.45;;;8.25;;
59169;SDS011;52474;52.236;5.114;2024-02-15T01:16:27;25.52;;;8.75;;
59169;SDS011;52474;52.236;5.114;2024-02-15T01:18:54;26.77;;;9.48;;
59169;SDS011;52474;52.236;5.114;2024-02-15T01:21:20;23.38;;;9.57;;
59169;SDS011;52474;52.236;5.114;2024-02-15T01:23:47;27.08;;;9.90;;
59169;SDS011;52474;52.236;5.114;2024-02-15T01:26:13;25.25;;;8.73;;
59169;SDS011;52474;52.236;5.114;2024-02-15T01:28:39;22.15;;;9.60;;
59169;SDS011;52474;52.236;5.114;2024-02-15T01:31:08;26.95;;;10.10;;
59169;SDS011;52474;52.236;5.114;2024-02-15T01:33:36;26.63;;;10.32;;
59169;SDS011;52474;52.236;5.114;2024-02-15T01:36:02;27.85;;;9.90;;
59169;SDS011;52474;52.236;5.114;2024-02-15T01:38:29;19.85;;;10.02;;
59169;SDS011;52474;52.236;5.114;2024-02-15T01:40:54;26.40;;;10.57;;
59169;SDS011;52474;52.236;5.114;2024-02-15T01:43:20;32.42;;;10.63;;
59169;SDS011;52474;52.236;5.114;2024-02-15T01:45:46;26.42;;;11.20;;
59169;SDS011;52474;52.236;5.114;2024-02-15T01:48:14;25.10;;;11.23;;
59169;SDS011;52474;52.236;5.114;2024-02-15T01:50:40;28.38;;;11.70;;
59169;SDS011;52474;52.236;5.114;2024-02-15T01:53:08;35.10;;;12.77;;
59169;SDS011;52474;52.236;5.114;2024-02-15T01:55:37;31.50;;;13.25;;
59169;SDS011;52474;52.236;5.114;2024-02-15T01:58:03;32.08;;;12.93;;
59169;SDS011;52474;52.236;5.114;2024-02-15T02:00:29;31.45;;;14.43;;
59169;SDS011;52474;52.236;5.114;2024-02-15T02:02:56;34.47;;;15.23;;
59169;SDS011;52474;52.236;5.114;2024-02-15T02:05:27;27.65;;;14.10;;
59169;SDS011;52474;52.236;5.114;2024-02-15T02:07:53;33.20;;;14.55;;
59169;SDS011;52474;52.236;5.114;2024-02-15T02:10:19;34.53;;;15.65;;
59169;SDS011;52474;52.236;5.114;2024-02-15T02:12:45;37.05;;;15.63;;
59169;SDS011;52474;52.236;5.114;2024-02-15T02:15:10;36.15;;;15.02;;
59169;SDS011;52474;52.236;5.114;2024-02-15T02:17:36;33.45;;;15.43;;
59169;SDS011;52474;52.236;5.114;2024-02-15T02:20:02;30.75;;;15.43;;
59169;SDS011;52474;52.236;5.114;2024-02-15T02:22:36;31.73;;;16.08;;
59169;SDS011;52474;52.236;5.114;2024-02-15T02:25:03;31.92;;;16.13;;
59169;SDS011;52474;52.236;5.114;2024-02-15T02:27:34;36.65;;;15.60;;
59169;SDS011;52474;52.236;5.114;2024-02-15T02:30:04;36.17;;;15.70;;
59169;SDS011;52474;52.236;5.114;2024-02-15T02:32:35;37.28;;;16.25;;
59169;SDS011;52474;52.236;5.114;2024-02-15T02:35:02;33.40;;;15.02;;
59169;SDS011;52474;52.236;5.114;2024-02-15T02:37:28;34.42;;;16.05;;
59169;SDS011;52474;52.236;5.114;2024-02-15T02:39:54;37.05;;;15.77;;
59169;SDS011;52474;52.236;5.114;2024-02-15T02:42:20;38.30;;;16.48;;
59169;SDS011;52474;52.236;5.114;2024-02-15T02:44:46;32.53;;;17.70;;
59169;SDS011;52474;52.236;5.114;2024-02-15T02:47:12;37.08;;;17.50;;
59169;SDS011;52474;52.236;5.114;2024-02-15T02:49:37;35.67;;;16.48;;
59169;SDS011;52474;52.236;5.114;2024-02-15T02:52:03;36.10;;;17.30;;
59169;SDS011;52474;52.236;5.114;2024-02-15T02:54:29;36.55;;;16.55;;
59169;SDS011;52474;52.236;5.114;2024-02-15T02:56:55;37.10;;;17.15;;
59169;SDS011;52474;52.236;5.114;2024-02-15T02:59:21;33.38;;;15.90;;
59169;SDS011;52474;52.236;5.114;2024-02-15T03:01:47;34.58;;;15.98;;
59169;SDS011;52474;52.236;5.114;2024-02-15T03:04:16;31.38;;;16.08;;
59169;SDS011;52474;52.236;5.114;2024-02-15T03:06:45;32.45;;;15.93;;
59169;SDS011;52474;52.236;5.114;2024-02-15T03:09:11;31.13;;;14.98;;
59169;SDS011;52474;52.236;5.114;2024-02-15T03:11:39;37.40;;;16.25;;
59169;SDS011;52474;52.236;5.114;2024-02-15T03:14:04;41.00;;;15.63;;
59169;SDS011;52474;52.236;5.114;2024-02-15T03:16:33;43.08;;;15.68;;
59169;SDS011;52474;52.236;5.114;2024-02-15T03:19:01;32.45;;;15.82;;
59169;SDS011;52474;52.236;5.114;2024-02-15T03:21:30;42.38;;;16.33;;
59169;SDS011;52474;52.236;5.114;2024-02-15T03:23:56;31.95;;;16.23;;
59169;SDS011;52474;52.236;5.114;2024-02-15T03:26:31;40.22;;;16.17;;
59169;SDS011;52474;52.236;5.114;2024-02-15T03:29:04;27.30;;;14.25;;
59169;SDS011;52474;52.236;5.114;2024-02-15T03:31:29;43.80;;;15.45;;
59169;SDS011;52474;52.236;5.114;2024-02-15T03:33:58;35.20;;;16.15;;
59169;SDS011;52474;52.236;5.114;2024-02-15T03:36:24;32.85;;;14.10;;
59169;SDS011;52474;52.236;5.114;2024-02-15T03:38:50;28.33;;;14.80;;
59169;SDS011;52474;52.236;5.114;2024-02-15T03:41:18;32.15;;;15.38;;
59169;SDS011;52474;52.236;5.114;2024-02-15T03:43:43;27.23;;;14.43;;
59169;SDS011;52474;52.236;5.114;2024-02-15T03:46:09;31.02;;;14.75;;
59169;SDS011;52474;52.236;5.114;2024-02-15T03:48:37;31.25;;;14.13;;
59169;SDS011;52474;52.236;5.114;2024-02-15T03:51:03;27.92;;;14.07;;
59169;SDS011;52474;52.236;5.114;2024-02-15T03:53:29;25.50;;;12.82;;
59169;SDS011;52474;52.236;5.114;2024-02-15T03:55:56;31.00;;;13.63;;
59169;SDS011;52474;52.236;5.114;2024-02-15T03:58:22;32.45;;;13.27;;
59169;SDS011;52474;52.236;5.114;2024-02-15T04:00:47;31.60;;;13.55;;
59169;SDS011;52474;52.236;5.114;2024-02-15T04:03:13;28.08;;;13.25;;
59169;SDS011;52474;52.236;5.114;2024-02-15T04:05:39;26.85;;;13.68;;
59169;SDS011;52474;52.236;5.114;2024-02-15T04:08:05;27.98;;;12.85;;
59169;SDS011;52474;52.236;5.114;2024-02-15T04:10:31;30.90;;;13.02;;
59169;SDS011;52474;52.236;5.114;2024-02-15T04:13:01;31.02;;;13.23;;
59169;SDS011;52474;52.236;5.114;2024-02-15T04:15:27;27.65;;;12.40;;
59169;SDS011;52474;52.236;5.114;2024-02-15T04:17:52;32.05;;;12.93;;
59169;SDS011;52474;52.236;5.114;2024-02-15T04:20:21;30.55;;;12.55;;
59169;SDS011;52474;52.236;5.114;2024-02-15T04:22:47;32.60;;;12.88;;
59169;SDS011;52474;52.236;5.114;2024-02-15T04:25:15;27.75;;;12.70;;
59169;SDS011;52474;52.236;5.114;2024-02-15T04:27:43;26.23;;;12.13;;
59169;SDS011;52474;52.236;5.114;2024-02-15T04:32:38;36.03;;;12.70;;
59169;SDS011;52474;52.236;5.114;2024-02-15T04:35:04;29.45;;;12.30;;
59169;SDS011;52474;52.236;5.114;2024-02-15T04:37:30;30.63;;;12.38;;
59169;SDS011;52474;52.236;5.114;2024-02-15T04:39:57;29.17;;;12.18;;
59169;SDS011;52474;52.236;5.114;2024-02-15T04:42:24;30.02;;;13.25;;
59169;SDS011;52474;52.236;5.114;2024-02-15T04:44:53;31.95;;;13.32;;
59169;SDS011;52474;52.236;5.114;2024-02-15T04:47:19;30.30;;;13.27;;
59169;SDS011;52474;52.236;5.114;2024-02-15T04:49:45;27.25;;;12.82;;
59169;SDS011;52474;52.236;5.114;2024-02-15T04:52:11;34.60;;;13.57;;
59169;SDS011;52474;52.236;5.114;2024-02-15T04:54:37;28.63;;;14.40;;
59169;SDS011;52474;52.236;5.114;2024-02-15T04:57:03;33.45;;;14.40;;
59169;SDS011;52474;52.236;5.114;2024-02-15T04:59:29;32.80;;;15.10;;
59169;SDS011;52474;52.236;5.114;2024-02-15T05:01:54;38.47;;;15.90;;
59169;SDS011;52474;52.236;5.114;2024-02-15T05:04:21;35.20;;;15.45;;
59169;SDS011;52474;52.236;5.114;2024-02-15T05:06:48;40.03;;;16.60;;
59169;SDS011;52474;52.236;5.114;2024-02-15T05:09:13;35.30;;;16.38;;
59169;SDS011;52474;52.236;5.114;2024-02-15T05:11:39;38.03;;;16.85;;
59169;SDS011;52474;52.236;5.114;2024-02-15T05:14:07;36.35;;;16.83;;
59169;SDS011;52474;52.236;5.114;2024-02-15T05:16:33;43.67;;;17.38;;
59169;SDS011;52474;52.236;5.114;2024-02-15T05:18:59;37.97;;;18.58;;
59169;SDS011;52474;52.236;5.114;2024-02-15T05:21:25;39.13;;;17.50;;
59169;SDS011;52474;52.236;5.114;2024-02-15T05:23:51;39.72;;;17.92;;
59169;SDS011;52474;52.236;5.114;2024-02-15T05:26:18;45.00;;;19.10;;
59169;SDS011;52474;52.236;5.114;2024-02-15T05:28:51;38.45;;;18.80;;
59169;SDS011;52474;52.236;5.114;2024-02-15T05:31:18;37.65;;;17.33;;
59169;SDS011;52474;52.236;5.114;2024-02-15T05:33:50;44.20;;;19.33;;
59169;SDS011;52474;52.236;5.114;2024-02-15T05:36:17;38.00;;;17.80;;
59169;SDS011;52474;52.236;5.114;2024-02-15T05:38:48;38.17;;;19.38;;
59169;SDS011;52474;52.236;5.114;2024-02-15T05:41:16;41.42;;;19.35;;
59169;SDS011;52474;52.236;5.114;2024-02-15T05:43:42;41.08;;;18.75;;
59169;SDS011;52474;52.236;5.114;2024-02-15T05:46:08;40.85;;;19.15;;
59169;SDS011;52474;52.236;5.114;2024-02-15T05:48:35;42.45;;;19.30;;
59169;SDS011;52474;52.236;5.114;2024-02-15T05:51:05;40.03;;;19.83;;
59169;SDS011;52474;52.236;5.114;2024-02-15T05:53:33;50.35;;;20.35;;
59169;SDS011;52474;52.236;5.114;2024-02-15T05:56:02;43.88;;;20.30;;
59169;SDS011;52474;52.236;5.114;2024-02-15T05:58:35;43.78;;;19.65;;
59169;SDS011;52474;52.236;5.114;2024-02-15T06:01:01;51.92;;;20.15;;
59169;SDS011;52474;52.236;5.114;2024-02-15T06:03:30;49.67;;;20.58;;
59169;SDS011;52474;52.236;5.114;2024-02-15T06:05:58;49.85;;;20.98;;
59169;SDS011;52474;52.236;5.114;2024-02-15T06:08:31;50.70;;;20.98;;
59169;SDS011;52474;52.236;5.114;2024-02-15T06:10:58;46.17;;;20.85;;
59169;SDS011;52474;52.236;5.114;2024-02-15T06:13:24;50.42;;;22.92;;
59169;SDS011;52474;52.236;5.114;2024-02-15T06:15:51;58.47;;;21.98;;
59169;SDS011;52474;52.236;5.114;2024-02-15T06:18:28;53.78;;;23.05;;
59169;SDS011;52474;52.236;5.114;2024-02-15T06:20:55;49.80;;;23.02;;
59169;SDS011;52474;52.236;5.114;2024-02-15T06:23:27;50.80;;;23.63;;
59169;SDS011;52474;52.236;5.114;2024-02-15T06:25:54;48.95;;;23.27;;
59169;SDS011;52474;52.236;5.114;2024-02-15T06:28:26;48.28;;;22.23;;
59169;SDS011;52474;52.236;5.114;2024-02-15T06:31:10;49.17;;;23.70;;
59169;SDS011;52474;52.236;5.114;2024-02-15T06:33:55;51.60;;;23.65;;
59169;SDS011;52474;52.236;5.114;2024-02-15T06:36:52;53.80;;;22.98;;
59169;SDS011;52474;52.236;5.114;2024-02-15T06:39:38;49.33;;;23.15;;
59169;SDS011;52474;52.236;5.114;2024-02-15T06:42:06;48.78;;;23.50;;
59169;SDS011;52474;52.236;5.114;2024-02-15T06:44:33;48.25;;;22.60;;
59169;SDS011;52474;52.236;5.114;2024-02-15T06:46:59;53.50;;;23.35;;
59169;SDS011;52474;52.236;5.114;2024-02-15T06:49:25;47.08;;;22.80;;
59169;SDS011;52474;52.236;5.114;2024-02-15T06:51:51;46.40;;;22.83;;
59169;SDS011;52474;52.236;5.114;2024-02-15T06:54:17;47.95;;;23.60;;
59169;SDS011;52474;52.236;5.114;2024-02-15T06:56:46;50.03;;;22.98;;
59169;SDS011;52474;52.236;5.114;2024-02-15T06:59:12;52.22;;;22.60;;
59169;SDS011;52474;52.236;5.114;2024-02-15T07:01:43;52.83;;;23.73;;
59169;SDS011;52474;52.236;5.114;2024-02-15T07:04:09;48.72;;;21.88;;
59169;SDS011;52474;52.236;5.114;2024-02-15T07:06:38;42.33;;;21.90;;
59169;SDS011;52474;52.236;5.114;2024-02-15T07:09:04;49.83;;;21.00;;
59169;SDS011;52474;52.236;5.114;2024-02-15T07:11:35;47.17;;;20.67;;
59169;SDS011;52474;52.236;5.114;2024-02-15T07:14:01;42.00;;;20.33;;
59169;SDS011;52474;52.236;5.114;2024-02-15T07:16:29;42.53;;;20.92;;
59169;SDS011;52474;52.236;5.114;2024-02-15T07:18:55;44.47;;;20.85;;
59169;SDS011;52474;52.236;5.114;2024-02-15T07:21:21;44.58;;;19.85;;
59169;SDS011;52474;52.236;5.114;2024-02-15T07:23:51;48.22;;;19.80;;
59169;SDS011;52474;52.236;5.114;2024-02-15T07:26:20;49.20;;;20.27;;
59169;SDS011;52474;52.236;5.114;2024-02-15T07:31:17;49.35;;;18.42;;
59169;SDS011;52474;52.236;5.114;2024-02-15T07:33:43;47.42;;;18.65;;
59169;SDS011;52474;52.236;5.114;2024-02-15T07:36:12;35.03;;;16.40;;
59169;SDS011;52474;52.236;5.114;2024-02-15T07:38:38;51.35;;;18.27;;
59169;SDS011;52474;52.236;5.114;2024-02-15T07:41:04;33.05;;;17.20;;
59169;SDS011;52474;52.236;5.114;2024-02-15T07:43:30;32.47;;;16.42;;
59169;SDS011;52474;52.236;5.114;2024-02-15T07:45:56;36.83;;;16.27;;
59169;SDS011;52474;52.236;5.114;2024-02-15T07:48:22;35.72;;;15.55;;
59169;SDS011;52474;52.236;5.114;2024-02-15T07:50:48;35.88;;;14.25;;
59169;SDS011;52474;52.236;5.114;2024-02-15T07:53:21;22.40;;;12.82;;
59169;SDS011;52474;52.236;5.114;2024-02-15T07:55:46;27.50;;;13.27;;
59169;SDS011;52474;52.236;5.114;2024-02-15T07:58:13;26.58;;;12.90;;
59169;SDS011;52474;52.236;5.114;2024-02-15T08:00:39;31.77;;;12.95;;
59169;SDS011;52474;52.236;5.114;2024-02-15T08:03:05;24.05;;;11.98;;
59169;SDS011;52474;52.236;5.114;2024-02-15T08:05:30;23.88;;;11.18;;
59169;SDS011;52474;52.236;5.114;2024-02-15T08:07:56;19.60;;;10.45;;
59169;SDS011;52474;52.236;5.114;2024-02-15T08:10:22;21.30;;;11.55;;
59169;SDS011;52474;52.236;5.114;2024-02-15T08:12:48;22.65;;;10.73;;
59169;SDS011;52474;52.236;5.114;2024-02-15T08:15:17;21.23;;;11.27;;
59169;SDS011;52474;52.236;5.114;2024-02-15T08:17:44;19.30;;;10.35;;
59169;SDS011;52474;52.236;5.114;2024-02-15T08:20:16;19.98;;;10.05;;
59169;SDS011;52474;52.236;5.114;2024-02-15T08:22:46;16.92;;;9.80;;
59169;SDS011;52474;52.236;5.114;2024-02-15T08:25:13;20.40;;;10.40;;
59169;SDS011;52474;52.236;5.114;2024-02-15T08:27:41;19.42;;;9.73;;
59169;SDS011;52474;52.236;5.114;2024-02-15T08:30:10;16.27;;;8.55;;
59169;SDS011;52474;52.236;5.114;2024-02-15T08:32:37;17.20;;;7.85;;
59169;SDS011;52474;52.236;5.114;2024-02-15T08:35:07;16.38;;;9.00;;
59169;SDS011;52474;52.236;5.114;2024-02-15T08:37:36;16.02;;;7.85;;
59169;SDS011;52474;52.236;5.114;2024-02-15T08:40:06;16.05;;;7.65;;
59169;SDS011;52474;52.236;5.114;2024-02-15T08:42:41;13.38;;;8.45;;
59169;SDS011;52474;52.236;5.114;2024-02-15T08:45:08;15.90;;;8.27;;
59169;SDS011;52474;52.236;5.114;2024-02-15T08:47:37;14.02;;;7.75;;
59169;SDS011;52474;52.236;5.114;2024-02-15T08:50:06;12.98;;;8.18;;
59169;SDS011;52474;52.236;5.114;2024-02-15T08:52:36;16.85;;;8.48;;
59169;SDS011;52474;52.236;5.114;2024-02-15T08:55:06;16.85;;;8.82;;
59169;SDS011;52474;52.236;5.114;2024-02-15T08:57:34;15.63;;;9.10;;
59169;SDS011;52474;52.236;5.114;2024-02-15T09:00:04;16.98;;;10.02;;
59169;SDS011;52474;52.236;5.114;2024-02-15T09:02:38;21.92;;;10.68;;
59169;SDS011;52474;52.236;5.114;2024-02-15T09:05:16;19.95;;;10.60;;
59169;SDS011;52474;52.236;5.114;2024-02-15T09:07:43;16.88;;;10.00;;
59169;SDS011;52474;52.236;5.114;2024-02-15T09:10:13;19.33;;;11.02;;
59169;SDS011;52474;52.236;5.114;2024-02-15T09:12:42;18.75;;;11.27;;
59169;SDS011;52474;52.236;5.114;2024-02-15T09:15:10;22.65;;;10.40;;
59169;SDS011;52474;52.236;5.114;2024-02-15T09:17:42;18.83;;;10.45;;
59169;SDS011;52474;52.236;5.114;2024-02-15T09:20:14;19.83;;;10.88;;
59169;SDS011;52474;52.236;5.114;2024-02-15T09:22:58;20.52;;;10.25;;
59169;SDS011;52474;52.236;5.114;2024-02-15T09:25:29;20.42;;;10.55;;
59169;SDS011;52474;52.236;5.114;2024-02-15T09:27:56;24.45;;;11.02;;
59169;SDS011;52474;52.236;5.114;2024-02-15T09:30:22;21.48;;;10.55;;
59169;SDS011;52474;52.236;5.114;2024-02-15T09:32:50;21.60;;;11.82;;
59169;SDS011;52474;52.236;5.114;2024-02-15T09:35:15;25.15;;;12.05;;
59169;SDS011;52474;52.236;5.114;2024-02-15T09:37:45;26.70;;;11.88;;
59169;SDS011;52474;52.236;5.114;2024-02-15T09:40:14;21.30;;;11.05;;
59169;SDS011;52474;52.236;5.114;2024-02-15T09:42:42;21.98;;;12.13;;
59169;SDS011;52474;52.236;5.114;2024-02-15T09:45:10;20.20;;;11.05;;
59169;SDS011;52474;52.236;5.114;2024-02-15T09:47:41;23.88;;;10.88;;
59169;SDS011;52474;52.236;5.114;2024-02-15T09:50:11;21.98;;;10.50;;
59169;SDS011;52474;52.236;5.114;2024-02-15T09:52:44;19.95;;;10.32;;
59169;SDS011;52474;52.236;5.114;2024-02-15T09:55:17;21.05;;;9.50;;
59169;SDS011;52474;52.236;5.114;2024-02-15T09:57:45;19.90;;;9.45;;
59169;SDS011;52474;52.236;5.114;2024-02-15T10:00:14;21.52;;;9.20;;
59169;SDS011;52474;52.236;5.114;2024-02-15T10:02:47;21.10;;;10.05;;
59169;SDS011;52474;52.236;5.114;2024-02-15T10:05:13;22.38;;;9.65;;
59169;SDS011;52474;52.236;5.114;2024-02-15T10:07:43;16.15;;;8.32;;
59169;SDS011;52474;52.236;5.114;2024-02-15T10:10:16;17.45;;;8.43;;
59169;SDS011;52474;52.236;5.114;2024-02-15T10:12:44;19.88;;;10.02;;
59169;SDS011;52474;52.236;5.114;2024-02-15T10:15:10;21.02;;;9.98;;
59169;SDS011;52474;52.236;5.114;2024-02-15T10:17:35;23.17;;;9.55;;
59169;SDS011;52474;52.236;5.114;2024-02-15T10:20:02;22.73;;;10.52;;
59169;SDS011;52474;52.236;5.114;2024-02-15T10:22:28;22.27;;;11.00;;
59169;SDS011;52474;52.236;5.114;2024-02-15T10:25:10;20.15;;;10.63;;
59169;SDS011;52474;52.236;5.114;2024-02-15T10:27:40;23.40;;;12.73;;
59169;SDS011;52474;52.236;5.114;2024-02-15T10:30:18;25.15;;;12.20;;
59169;SDS011;52474;52.236;5.114;2024-02-15T10:32:45;25.42;;;13.65;;
59169;SDS011;52474;52.236;5.114;2024-02-15T10:35:21;18.95;;;11.02;;
59169;SDS011;52474;52.236;5.114;2024-02-15T10:37:50;22.17;;;11.63;;
59169;SDS011;52474;52.236;5.114;2024-02-15T10:40:19;19.38;;;11.07;;
59169;SDS011;52474;52.236;5.114;2024-02-15T10:42:49;24.17;;;10.30;;
59169;SDS011;52474;52.236;5.114;2024-02-15T10:45:17;22.98;;;10.93;;
59169;SDS011;52474;52.236;5.114;2024-02-15T10:47:45;22.98;;;11.20;;
59169;SDS011;52474;52.236;5.114;2024-02-15T10:50:13;23.20;;;10.90;;
59169;SDS011;52474;52.236;5.114;2024-02-15T10:52:43;27.63;;;10.40;;
59169;SDS011;52474;52.236;5.114;2024-02-15T10:55:52;21.17;;;10.05;;
59169;SDS011;52474;52.236;5.114;2024-02-15T10:58:23;22.10;;;10.52;;
59169;SDS011;52474;52.236;5.114;2024-02-15T11:00:52;20.40;;;10.27;;
59169;SDS011;52474;52.236;5.114;2024-02-15T11:03:39;23.15;;;10.50;;
59169;SDS011;52474;52.236;5.114;2024-02-15T11:06:09;21.88;;;9.93;;
59169;SDS011;52474;52.236;5.114;2024-02-15T11:08:36;20.00;;;9.30;;
59169;SDS011;52474;52.236;5.114;2024-02-15T11:11:02;20.42;;;9.88;;
59169;SDS011;52474;52.236;5.114;2024-02-15T11:13:30;25.67;;;9.90;;
59169;SDS011;52474;52.236;5.114;2024-02-15T11:15:55;18.85;;;10.43;;
59169;SDS011;52474;52.236;5.114;2024-02-15T11:18:41;23.15;;;10.48;;
59169;SDS011;52474;52.236;5.114;2024-02-15T11:26:58;22.33;;;11.20;;
59169;SDS011;52474;52.236;5.114;2024-02-15T11:35:22;21.55;;;11.23;;
59169;SDS011;52474;52.236;5.114;2024-02-15T11:40:18;22.42;;;10.70;;
59169;SDS011;52474;52.236;5.114;2024-02-15T11:42:44;17.63;;;11.63;;
59169;SDS011;52474;52.236;5.114;2024-02-15T11:45:11;22.40;;;10.82;;
59169;SDS011;52474;52.236;5.114;2024-02-15T11:47:38;26.52;;;11.82;;
59169;SDS011;52474;52.236;5.114;2024-02-15T11:50:07;21.15;;;11.88;;
59169;SDS011;52474;52.236;5.114;2024-02-15T11:52:38;26.17;;;12.35;;
59169;SDS011;52474;52.236;5.114;2024-02-15T11:55:06;22.98;;;11.70;;
59169;SDS011;52474;52.236;5.114;2024-02-15T11:57:36;22.77;;;11.98;;
59169;SDS011;52474;52.236;5.114;2024-02-15T12:00:19;17.98;;;11.50;;
59169;SDS011;52474;52.236;5.114;2024-02-15T12:03:09;24.77;;;11.60;;
59169;SDS011;52474;52.236;5.114;2024-02-15T12:05:54;19.95;;;11.10;;
59169;SDS011;52474;52.236;5.114;2024-02-15T12:08:39;19.70;;;11.25;;
59169;SDS011;52474;52.236;5.114;2024-02-15T12:11:27;23.55;;;12.02;;
59169;SDS011;52474;52.236;5.114;2024-02-15T12:14:14;21.58;;;11.93;;
59169;SDS011;52474;52.236;5.114;2024-02-15T12:17:09;20.63;;;12.07;;
59169;SDS011;52474;52.236;5.114;2024-02-15T12:19:55;17.52;;;11.40;;
59169;SDS011;52474;52.236;5.114;2024-02-15T12:24:59;19.65;;;12.48;;
59169;SDS011;52474;52.236;5.114;2024-02-15T12:27:26;18.70;;;11.75;;
59169;SDS011;52474;52.236;5.114;2024-02-15T12:29:56;23.60;;;12.57;;
59169;SDS011;52474;52.236;5.114;2024-02-15T12:32:27;20.55;;;12.48;;
59169;SDS011;52474;52.236;5.114;2024-02-15T12:34:53;16.67;;;12.40;;
59169;SDS011;52474;52.236;5.114;2024-02-15T12:37:38;16.70;;;12.60;;
59169;SDS011;52474;52.236;5.114;2024-02-15T12:42:46;19.33;;;12.52;;
59169;SDS011;52474;52.236;5.114;2024-02-15T12:45:18;18.55;;;12.25;;
59169;SDS011;52474;52.236;5.114;2024-02-15T12:47:51;18.63;;;12.88;;
59169;SDS011;52474;52.236;5.114;2024-02-15T12:50:21;17.48;;;12.48;;
59169;SDS011;52474;52.236;5.114;2024-02-15T12:55:17;14.90;;;10.88;;
59169;SDS011;52474;52.236;5.114;2024-02-15T12:57:48;18.08;;;11.93;;
59169;SDS011;52474;52.236;5.114;2024-02-15T13:00:19;16.27;;;11.48;;
59169;SDS011;52474;52.236;5.114;2024-02-15T13:02:49;18.48;;;10.82;;
59169;SDS011;52474;52.236;5.114;2024-02-15T13:05:16;16.40;;;9.88;;
59169;SDS011;52474;52.236;5.114;2024-02-15T13:07:47;14.27;;;10.13;;
59169;SDS011;52474;52.236;5.114;2024-02-15T13:10:17;15.20;;;10.18;;
59169;SDS011;52474;52.236;5.114;2024-02-15T13:12:45;14.23;;;10.75;;
59169;SDS011;52474;52.236;5.114;2024-02-15T13:15:15;15.70;;;10.77;;
59169;SDS011;52474;52.236;5.114;2024-02-15T13:17:49;17.13;;;12.38;;
59169;SDS011;52474;52.236;5.114;2024-02-15T13:20:19;19.08;;;11.65;;
59169;SDS011;52474;52.236;5.114;2024-02-15T13:23:06;18.73;;;11.43;;
59169;SDS011;52474;52.236;5.114;2024-02-15T13:25:40;14.65;;;9.20;;
59169;SDS011;52474;52.236;5.114;2024-02-15T13:28:08;13.48;;;8.57;;
59169;SDS011;52474;52.236;5.114;2024-02-15T13:30:36;10.15;;;7.40;;
59169;SDS011;52474;52.236;5.114;2024-02-15T13:33:02;9.93;;;6.40;;
59169;SDS011;52474;52.236;5.114;2024-02-15T13:35:28;8.70;;;6.70;;
59169;SDS011;52474;52.236;5.114;2024-02-15T13:37:54;14.32;;;9.25;;
59169;SDS011;52474;52.236;5.114;2024-02-15T13:40:20;13.02;;;6.22;;
59169;SDS011;52474;52.236;5.114;2024-02-15T13:45:30;10.13;;;4.60;;
59169;SDS011;52474;52.236;5.114;2024-02-15T13:47:59;8.95;;;4.88;;
59169;SDS011;52474;52.236;5.114;2024-02-15T13:50:30;9.90;;;6.13;;
59169;SDS011;52474;52.236;5.114;2024-02-15T13:52:56;8.73;;;5.95;;
59169;SDS011;52474;52.236;5.114;2024-02-15T13:55:23;7.88;;;4.32;;
59169;SDS011;52474;52.236;5.114;2024-02-15T13:57:53;7.50;;;4.10;;
59169;SDS011;52474;52.236;5.114;2024-02-15T14:00:21;7.47;;;4.47;;
59169;SDS011;52474;52.236;5.114;2024-02-15T14:02:55;11.25;;;4.95;;
59169;SDS011;52474;52.236;5.114;2024-02-15T14:05:22;9.00;;;4.55;;
59169;SDS011;52474;52.236;5.114;2024-02-15T14:08:00;7.72;;;4.10;;
59169;SDS011;52474;52.236;5.114;2024-02-15T14:10:38;10.23;;;4.30;;
59169;SDS011;52474;52.236;5.114;2024-02-15T14:13:04;10.25;;;4.05;;
59169;SDS011;52474;52.236;5.114;2024-02-15T14:20:31;8.23;;;3.47;;
59169;SDS011;52474;52.236;5.114;2024-02-15T14:22:57;7.68;;;2.90;;
59169;SDS011;52474;52.236;5.114;2024-02-15T14:25:24;6.68;;;3.40;;
59169;SDS011;52474;52.236;5.114;2024-02-15T14:27:56;7.90;;;3.80;;
59169;SDS011;52474;52.236;5.114;2024-02-15T14:30:22;7.72;;;3.38;;
59169;SDS011;52474;52.236;5.114;2024-02-15T14:33:06;10.18;;;3.25;;
59169;SDS011;52474;52.236;5.114;2024-02-15T14:35:37;6.20;;;3.45;;
59169;SDS011;52474;52.236;5.114;2024-02-15T14:38:08;8.52;;;3.60;;
59169;SDS011;52474;52.236;5.114;2024-02-15T14:40:39;6.57;;;3.40;;
59169;SDS011;52474;52.236;5.114;2024-02-15T14:43:08;9.15;;;3.90;;
59169;SDS011;52474;52.236;5.114;2024-02-15T14:45:37;7.60;;;2.92;;
59169;SDS011;52474;52.236;5.114;2024-02-15T14:48:06;8.38;;;3.65;;
59169;SDS011;52474;52.236;5.114;2024-02-15T14:53:02;6.72;;;3.80;;
59169;SDS011;52474;52.236;5.114;2024-02-15T14:55:27;7.00;;;3.05;;
59169;SDS011;52474;52.236;5.114;2024-02-15T14:57:56;8.98;;;3.63;;
59169;SDS011;52474;52.236;5.114;2024-02-15T15:00:25;7.50;;;3.60;;
59169;SDS011;52474;52.236;5.114;2024-02-15T15:02:52;6.43;;;3.13;;
59169;SDS011;52474;52.236;5.114;2024-02-15T15:05:21;7.05;;;3.13;;
59169;SDS011;52474;52.236;5.114;2024-02-15T15:08:06;5.68;;;2.80;;
59169;SDS011;52474;52.236;5.114;2024-02-15T15:10:50;6.65;;;2.92;;
59169;SDS011;52474;52.236;5.114;2024-02-15T15:13:34;9.60;;;2.97;;